Time Latitude Longitude Accuracy (66% radius in meters) Altitude (meters) Speed (km/hour) Bearing (degrees) Battery (%) GPS flag
06:58:28 55.092738 60.338401 7 343 0.31000000238419 126.30000305176 88 1 delete
06:57:54 55.092806 60.338257 9 352 0.40999999642372 136.30000305176 88 1 delete
06:57:47 55.092848 60.338114 11 354 1.6499999761581 139 88 1 delete
06:57:37 55.093036 60.337693 11 353 2.4700000286102 124.19999694824 88 1 delete
06:57:26 55.093306 60.337322 11 352 3.1899998188019 147.80000305176 88 1 delete
06:57:12 55.093597 60.337183 10 351 0.68999999761581 213.30000305176 88 1 delete
06:57:04 55.093684 60.337229 10 351 0.47999998927116 196.69999694824 88 1 delete
06:56:58 55.093781 60.337279 10 350 0.79999995231628 195.80000305176 88 1 delete
06:56:49 55.093961 60.337294 10 349 0.42999997735023 169.30000305176 88 1 delete
06:56:41 55.094053 60.337280 10 349 0.52999997138977 188 88 1 delete
06:56:34 55.094145 60.337307 9 348 0 0 88 1 delete
06:56:10 55.094236 60.337332 9 348 0.079999998211861 218.10000610352 88 1 delete
06:56:02 55.094327 60.337361 10 349 0.63999998569489 190.10000610352 88 1 delete
06:55:44 55.094530 60.337429 11 344 1.3799999952316 157.5 90 1 delete
06:55:20 55.094828 60.337385 9 341 0.48999997973442 172.60000610352 90 1 delete
06:54:47 55.095015 60.337695 10 342 0.31000000238419 325.10000610352 90 1 delete
06:54:37 55.094964 60.337838 10 345 0.66999995708466 324.89999389648 90 1 delete
06:54:30 55.094923 60.338009 9 346 0.41999998688698 326.20001220703 90 1 delete
06:54:25 55.094879 60.338149 10 345 1.0199999809265 344.70001220703 90 1 delete
06:54:20 55.094822 60.338272 9 346 0 0 90 1 delete
06:54:14 55.094813 60.338447 10 346 1.539999961853 246.69999694824 90 1 delete
06:54:07 55.094826 60.338602 10 345 0.79999995231628 293.29998779297 90 1 delete
06:53:55 55.094808 60.338927 10 345 0.96999996900558 269.79998779297 90 1 delete
06:53:48 55.094810 60.339109 10 345 0 0 90 1 delete
06:53:40 55.094817 60.339267 9 346 0.099999994039536 245.60000610352 90 1 delete
06:53:28 55.094855 60.339432 11 346 0.76999998092651 241.60000610352 90 1 delete
06:53:10 55.095045 60.339832 12 347 0.97999995946884 203.30000305176 90 1 delete
06:52:54 55.095323 60.340068 11 349 1.8099999427795 182.80000305176 90 1 delete
06:52:33 55.095561 60.340329 10 352 0.62000000476837 269.29998779297 90 1 delete
06:52:24 55.095529 60.340476 10 356 0.58999997377396 328.39999389648 90 1 delete
06:52:17 55.095495 60.340666 10 356 0.77999997138977 334.5 90 1 delete
06:52:02 55.095331 60.340811 10 357 0.81000000238419 325.29998779297 90 1 delete
06:51:54 55.095259 60.340914 10 358 0.47999998927116 350.39999389648 90 1 delete
06:51:38 55.095100 60.341095 10 359 1.0299999713898 337.5 90 1 delete
06:51:31 55.095028 60.341190 10 359 1.0599999427795 30.299999237061 90 1 delete
06:51:23 55.094930 60.341190 9 357 0.29999998211861 335 90 1 delete
06:50:52 55.094656 60.341649 9 357 0.83999997377396 295.70001220703 90 1 delete
06:50:45 55.094624 60.341809 9 356 0.93999999761581 292.89999389648 90 1 delete
06:50:40 55.094592 60.341960 8 355 0.78999996185303 337 90 1 delete
06:50:31 55.094534 60.342090 10 355 0.84999996423721 336.60000610352 90 1 delete
06:50:03 55.094480 60.342564 9 353 0.23999999463558 239.39999389648 90 1 delete
06:49:53 55.094546 60.342698 9 355 0.62000000476837 239.60000610352 90 1 delete
06:49:25 55.094710 60.342892 10 362 0.62999999523163 214.80000305176 90 1 delete
06:48:55 55.094707 60.343379 10 365 0.84999996423721 276.60000610352 90 1 delete
06:48:31 55.094608 60.343844 10 369 0.85999995470047 354.29998779297 90 1 delete
06:48:10 55.094461 60.344271 10 372 0.5 291 90 1 delete
06:47:59 55.094418 60.344409 10 375 0.37999999523163 318.79998779297 90 1 delete
06:47:36 55.094249 60.344811 9 374 0.11999999731779 4.5 90 1 delete
06:47:27 55.094161 60.344782 10 376 0 0 90 1 delete
06:47:21 55.094062 60.344802 10 376 0.81999999284744 30.700000762939 90 1 delete